sensor_id;sensor_type;location;lat;lon;timestamp;temperature;humidity
52203;DHT22;38173;52.850;6.970;2023-11-22T00:02:04;1.20;99.90
52203;DHT22;38173;52.850;6.970;2023-11-22T00:04:32;1.20;99.90
52203;DHT22;38173;52.850;6.970;2023-11-22T00:07:01;1.20;99.90
52203;DHT22;38173;52.850;6.970;2023-11-22T00:09:27;1.20;99.90
52203;DHT22;38173;52.850;6.970;2023-11-22T00:11:56;1.20;99.90
52203;DHT22;38173;52.850;6.970;2023-11-22T00:14:22;1.20;99.90
52203;DHT22;38173;52.850;6.970;2023-11-22T00:17:26;1.20;99.90
52203;DHT22;38173;52.850;6.970;2023-11-22T00:20:08;1.20;99.90
52203;DHT22;38173;52.850;6.970;2023-11-22T00:22:41;1.10;99.90
52203;DHT22;38173;52.850;6.970;2023-11-22T00:25:13;1.20;99.90
52203;DHT22;38173;52.850;6.970;2023-11-22T00:27:40;1.10;99.90
52203;DHT22;38173;52.850;6.970;2023-11-22T00:30:17;1.10;99.90
52203;DHT22;38173;52.850;6.970;2023-11-22T00:32:45;1.10;99.90
52203;DHT22;38173;52.850;6.970;2023-11-22T00:35:20;1.10;99.90
52203;DHT22;38173;52.850;6.970;2023-11-22T00:37:52;1.10;99.90
52203;DHT22;38173;52.850;6.970;2023-11-22T00:43:09;1.10;99.90
52203;DHT22;38173;52.850;6.970;2023-11-22T00:45:57;1.00;99.90
52203;DHT22;38173;52.850;6.970;2023-11-22T00:48:33;1.00;99.90
52203;DHT22;38173;52.850;6.970;2023-11-22T00:51:05;1.00;99.90
52203;DHT22;38173;52.850;6.970;2023-11-22T00:53:40;1.00;99.90
52203;DHT22;38173;52.850;6.970;2023-11-22T00:56:22;1.00;99.90
52203;DHT22;38173;52.850;6.970;2023-11-22T00:58:54;0.90;99.90
52203;DHT22;38173;52.850;6.970;2023-11-22T01:01:32;1.00;99.90
52203;DHT22;38173;52.850;6.970;2023-11-22T01:04:04;1.00;99.90
52203;DHT22;38173;52.850;6.970;2023-11-22T01:06:32;1.10;99.90
52203;DHT22;38173;52.850;6.970;2023-11-22T01:09:01;1.10;99.90
52203;DHT22;38173;52.850;6.970;2023-11-22T01:11:41;1.10;99.90
52203;DHT22;38173;52.850;6.970;2023-11-22T01:14:12;1.00;99.90
52203;DHT22;38173;52.850;6.970;2023-11-22T01:16:38;0.90;99.90
52203;DHT22;38173;52.850;6.970;2023-11-22T01:19:04;0.90;99.90
52203;DHT22;38173;52.850;6.970;2023-11-22T01:21:48;0.80;99.90
52203;DHT22;38173;52.850;6.970;2023-11-22T01:24:22;0.80;99.90
52203;DHT22;38173;52.850;6.970;2023-11-22T01:27:04;0.80;99.90
52203;DHT22;38173;52.850;6.970;2023-11-22T01:29:52;0.80;99.90
52203;DHT22;38173;52.850;6.970;2023-11-22T01:32:20;0.70;99.90
52203;DHT22;38173;52.850;6.970;2023-11-22T01:34:49;0.70;99.90
52203;DHT22;38173;52.850;6.970;2023-11-22T01:37:23;0.60;99.90
52203;DHT22;38173;52.850;6.970;2023-11-22T01:39:56;0.60;99.90
52203;DHT22;38173;52.850;6.970;2023-11-22T01:42:25;0.50;99.90
52203;DHT22;38173;52.850;6.970;2023-11-22T01:44:53;0.50;99.90
52203;DHT22;38173;52.850;6.970;2023-11-22T01:47:40;0.40;99.90
52203;DHT22;38173;52.850;6.970;2023-11-22T01:50:09;0.40;99.90
52203;DHT22;38173;52.850;6.970;2023-11-22T01:52:51;0.40;99.90
52203;DHT22;38173;52.850;6.970;2023-11-22T01:55:17;0.30;99.90
52203;DHT22;38173;52.850;6.970;2023-11-22T01:57:46;0.30;99.90
52203;DHT22;38173;52.850;6.970;2023-11-22T02:00:19;0.30;99.90
52203;DHT22;38173;52.850;6.970;2023-11-22T02:03:06;0.30;99.90
52203;DHT22;38173;52.850;6.970;2023-11-22T02:05:39;0.30;99.90
52203;DHT22;38173;52.850;6.970;2023-11-22T02:10:59;0.30;99.90
52203;DHT22;38173;52.850;6.970;2023-11-22T02:13:28;0.30;99.90
52203;DHT22;38173;52.850;6.970;2023-11-22T02:16:02;0.30;99.90
52203;DHT22;38173;52.850;6.970;2023-11-22T02:18:34;0.40;99.90
52203;DHT22;38173;52.850;6.970;2023-11-22T02:21:05;0.30;99.90
52203;DHT22;38173;52.850;6.970;2023-11-22T02:23:31;0.30;99.90
52203;DHT22;38173;52.850;6.970;2023-11-22T02:25:59;0.40;99.90
52203;DHT22;38173;52.850;6.970;2023-11-22T02:28:27;0.40;99.90
52203;DHT22;38173;52.850;6.970;2023-11-22T02:31:08;0.40;99.90
52203;DHT22;38173;52.850;6.970;2023-11-22T02:33:39;0.40;99.90
52203;DHT22;38173;52.850;6.970;2023-11-22T02:36:07;0.30;99.90
52203;DHT22;38173;52.850;6.970;2023-11-22T02:38:38;0.30;99.90
52203;DHT22;38173;52.850;6.970;2023-11-22T02:41:16;0.30;99.90
52203;DHT22;38173;52.850;6.970;2023-11-22T02:43:42;0.30;99.90
52203;DHT22;38173;52.850;6.970;2023-11-22T02:46:17;0.20;99.90
52203;DHT22;38173;52.850;6.970;2023-11-22T02:48:53;0.20;99.90
52203;DHT22;38173;52.850;6.970;2023-11-22T02:51:27;0.10;99.90
52203;DHT22;38173;52.850;6.970;2023-11-22T02:53:53;0.10;99.90
52203;DHT22;38173;52.850;6.970;2023-11-22T02:56:22;0.10;99.90
52203;DHT22;38173;52.850;6.970;2023-11-22T02:58:54;0.00;99.90
52203;DHT22;38173;52.850;6.970;2023-11-22T03:01:22;0.00;99.90
52203;DHT22;38173;52.850;6.970;2023-11-22T03:03:51;0.00;99.90
52203;DHT22;38173;52.850;6.970;2023-11-22T03:06:19;0.00;99.90
52203;DHT22;38173;52.850;6.970;2023-11-22T03:08:45;0.00;99.90
52203;DHT22;38173;52.850;6.970;2023-11-22T03:11:10;0.00;99.90
52203;DHT22;38173;52.850;6.970;2023-11-22T03:13:40;0.00;99.90
52203;DHT22;38173;52.850;6.970;2023-11-22T03:16:06;0.00;99.90
52203;DHT22;38173;52.850;6.970;2023-11-22T03:18:34;0.00;99.90
52203;DHT22;38173;52.850;6.970;2023-11-22T03:21:03;0.00;99.90
52203;DHT22;38173;52.850;6.970;2023-11-22T03:23:30;0.10;99.90
52203;DHT22;38173;52.850;6.970;2023-11-22T03:26:04;0.10;99.90
52203;DHT22;38173;52.850;6.970;2023-11-22T03:28:32;0.10;99.90
52203;DHT22;38173;52.850;6.970;2023-11-22T03:31:01;0.10;99.90
52203;DHT22;38173;52.850;6.970;2023-11-22T03:33:36;0.00;99.90
52203;DHT22;38173;52.850;6.970;2023-11-22T03:36:05;0.10;99.90
52203;DHT22;38173;52.850;6.970;2023-11-22T03:38:36;0.10;99.90
52203;DHT22;38173;52.850;6.970;2023-11-22T03:41:06;0.10;99.90
52203;DHT22;38173;52.850;6.970;2023-11-22T03:43:39;0.10;99.90
52203;DHT22;38173;52.850;6.970;2023-11-22T03:46:06;0.20;99.90
52203;DHT22;38173;52.850;6.970;2023-11-22T03:48:31;0.20;99.90
52203;DHT22;38173;52.850;6.970;2023-11-22T03:51:00;0.20;99.90
52203;DHT22;38173;52.850;6.970;2023-11-22T03:53:29;0.20;99.90
52203;DHT22;38173;52.850;6.970;2023-11-22T03:55:58;0.20;99.90
52203;DHT22;38173;52.850;6.970;2023-11-22T03:58:32;0.20;99.90
52203;DHT22;38173;52.850;6.970;2023-11-22T04:00:58;0.20;99.90
52203;DHT22;38173;52.850;6.970;2023-11-22T04:03:28;0.20;99.90
52203;DHT22;38173;52.850;6.970;2023-11-22T04:06:00;0.20;99.90
52203;DHT22;38173;52.850;6.970;2023-11-22T04:08:29;0.20;99.90
52203;DHT22;38173;52.850;6.970;2023-11-22T04:11:00;0.10;99.90
52203;DHT22;38173;52.850;6.970;2023-11-22T04:13:29;0.10;99.90
52203;DHT22;38173;52.850;6.970;2023-11-22T04:15:56;0.00;99.90
52203;DHT22;38173;52.850;6.970;2023-11-22T04:18:41;-0.10;99.90
52203;DHT22;38173;52.850;6.970;2023-11-22T04:21:10;-0.10;99.90
52203;DHT22;38173;52.850;6.970;2023-11-22T04:23:36;-0.10;99.90
52203;DHT22;38173;52.850;6.970;2023-11-22T04:26:05;-0.10;99.90
52203;DHT22;38173;52.850;6.970;2023-11-22T04:28:57;-0.10;99.90
52203;DHT22;38173;52.850;6.970;2023-11-22T04:31:26;-0.10;99.90
52203;DHT22;38173;52.850;6.970;2023-11-22T04:33:56;-0.20;99.90
52203;DHT22;38173;52.850;6.970;2023-11-22T04:36:26;-0.20;99.90
52203;DHT22;38173;52.850;6.970;2023-11-22T04:38:54;-0.10;99.90
52203;DHT22;38173;52.850;6.970;2023-11-22T04:41:24;-0.20;99.90
52203;DHT22;38173;52.850;6.970;2023-11-22T04:44:00;-0.20;99.90
52203;DHT22;38173;52.850;6.970;2023-11-22T04:46:32;-0.30;99.90
52203;DHT22;38173;52.850;6.970;2023-11-22T04:48:59;-0.30;99.90
52203;DHT22;38173;52.850;6.970;2023-11-22T04:51:47;-0.30;99.90
52203;DHT22;38173;52.850;6.970;2023-11-22T04:54:14;-0.30;99.90
52203;DHT22;38173;52.850;6.970;2023-11-22T04:56:43;-0.30;99.90
52203;DHT22;38173;52.850;6.970;2023-11-22T04:59:12;-0.30;99.90
52203;DHT22;38173;52.850;6.970;2023-11-22T05:01:48;-0.30;99.90
52203;DHT22;38173;52.850;6.970;2023-11-22T05:04:14;-0.30;99.90
52203;DHT22;38173;52.850;6.970;2023-11-22T05:06:53;-0.30;99.90
52203;DHT22;38173;52.850;6.970;2023-11-22T05:09:20;-0.30;99.90
52203;DHT22;38173;52.850;6.970;2023-11-22T05:11:46;-0.20;99.90
52203;DHT22;38173;52.850;6.970;2023-11-22T05:14:13;-0.30;99.90
52203;DHT22;38173;52.850;6.970;2023-11-22T05:16:41;-0.20;99.90
52203;DHT22;38173;52.850;6.970;2023-11-22T05:19:10;-0.20;99.90
52203;DHT22;38173;52.850;6.970;2023-11-22T05:21:44;-0.20;99.90
52203;DHT22;38173;52.850;6.970;2023-11-22T05:24:09;-0.20;99.90
52203;DHT22;38173;52.850;6.970;2023-11-22T05:26:38;-0.20;99.90
52203;DHT22;38173;52.850;6.970;2023-11-22T05:29:07;-0.20;99.90
52203;DHT22;38173;52.850;6.970;2023-11-22T05:31:35;-0.20;99.90
52203;DHT22;38173;52.850;6.970;2023-11-22T05:34:05;-0.20;99.90
52203;DHT22;38173;52.850;6.970;2023-11-22T05:36:31;-0.30;99.90
52203;DHT22;38173;52.850;6.970;2023-11-22T05:38:58;-0.30;99.90
52203;DHT22;38173;52.850;6.970;2023-11-22T05:41:31;-0.30;99.90
52203;DHT22;38173;52.850;6.970;2023-11-22T05:43:57;-0.30;99.90
52203;DHT22;38173;52.850;6.970;2023-11-22T05:46:23;-0.40;99.90
52203;DHT22;38173;52.850;6.970;2023-11-22T05:48:57;-0.40;99.90
52203;DHT22;38173;52.850;6.970;2023-11-22T05:51:22;-0.40;99.90
52203;DHT22;38173;52.850;6.970;2023-11-22T05:53:48;-0.40;99.90
52203;DHT22;38173;52.850;6.970;2023-11-22T05:56:17;-0.30;99.90
52203;DHT22;38173;52.850;6.970;2023-11-22T05:58:43;-0.30;99.90
52203;DHT22;38173;52.850;6.970;2023-11-22T06:01:11;-0.30;99.90
52203;DHT22;38173;52.850;6.970;2023-11-22T06:03:40;-0.20;99.90
52203;DHT22;38173;52.850;6.970;2023-11-22T06:06:09;-0.20;99.90
52203;DHT22;38173;52.850;6.970;2023-11-22T06:08:38;-0.30;99.90
52203;DHT22;38173;52.850;6.970;2023-11-22T06:11:03;-0.30;99.90
52203;DHT22;38173;52.850;6.970;2023-11-22T06:13:29;-0.30;99.90
52203;DHT22;38173;52.850;6.970;2023-11-22T06:15:55;-0.30;99.90
52203;DHT22;38173;52.850;6.970;2023-11-22T06:18:21;-0.30;99.90
52203;DHT22;38173;52.850;6.970;2023-11-22T06:20:49;-0.30;99.90
52203;DHT22;38173;52.850;6.970;2023-11-22T06:23:15;-0.30;99.90
52203;DHT22;38173;52.850;6.970;2023-11-22T06:25:41;-0.40;99.90
52203;DHT22;38173;52.850;6.970;2023-11-22T06:28:15;-0.30;99.90
52203;DHT22;38173;52.850;6.970;2023-11-22T06:30:50;-0.30;99.90
52203;DHT22;38173;52.850;6.970;2023-11-22T06:33:17;-0.30;99.90
52203;DHT22;38173;52.850;6.970;2023-11-22T06:35:43;-0.40;99.90
52203;DHT22;38173;52.850;6.970;2023-11-22T06:38:08;-0.40;99.90
52203;DHT22;38173;52.850;6.970;2023-11-22T06:40:34;-0.40;99.90
52203;DHT22;38173;52.850;6.970;2023-11-22T06:43:00;-0.50;99.90
52203;DHT22;38173;52.850;6.970;2023-11-22T06:45:32;-0.50;99.90
52203;DHT22;38173;52.850;6.970;2023-11-22T06:48:12;-0.50;99.90
52203;DHT22;38173;52.850;6.970;2023-11-22T06:50:41;-0.50;99.90
52203;DHT22;38173;52.850;6.970;2023-11-22T06:53:10;-0.50;99.90
52203;DHT22;38173;52.850;6.970;2023-11-22T06:55:37;-0.50;99.90
52203;DHT22;38173;52.850;6.970;2023-11-22T06:58:04;-0.50;99.90
52203;DHT22;38173;52.850;6.970;2023-11-22T07:00:31;-0.50;99.90
52203;DHT22;38173;52.850;6.970;2023-11-22T07:03:08;-0.50;99.90
52203;DHT22;38173;52.850;6.970;2023-11-22T07:05:42;-0.40;99.90
52203;DHT22;38173;52.850;6.970;2023-11-22T07:08:23;-0.40;99.90
52203;DHT22;38173;52.850;6.970;2023-11-22T07:10:53;-0.40;99.90
52203;DHT22;38173;52.850;6.970;2023-11-22T07:13:22;-0.40;99.90
52203;DHT22;38173;52.850;6.970;2023-11-22T07:15:48;-0.40;99.90
52203;DHT22;38173;52.850;6.970;2023-11-22T07:18:21;-0.40;99.90
52203;DHT22;38173;52.850;6.970;2023-11-22T07:20:50;-0.30;99.90
52203;DHT22;38173;52.850;6.970;2023-11-22T07:23:15;-0.30;99.90
52203;DHT22;38173;52.850;6.970;2023-11-22T07:25:42;-0.20;99.90
52203;DHT22;38173;52.850;6.970;2023-11-22T07:28:09;-0.20;99.90
52203;DHT22;38173;52.850;6.970;2023-11-22T07:30:35;-0.20;99.90
52203;DHT22;38173;52.850;6.970;2023-11-22T07:33:04;-0.10;99.90
52203;DHT22;38173;52.850;6.970;2023-11-22T07:35:31;-0.20;99.90
52203;DHT22;38173;52.850;6.970;2023-11-22T07:37:57;-0.10;99.90
52203;DHT22;38173;52.850;6.970;2023-11-22T07:40:26;-0.20;99.90
52203;DHT22;38173;52.850;6.970;2023-11-22T07:42:52;-0.20;99.90
52203;DHT22;38173;52.850;6.970;2023-11-22T07:45:18;-0.10;99.90
52203;DHT22;38173;52.850;6.970;2023-11-22T07:47:44;-0.10;99.90
52203;DHT22;38173;52.850;6.970;2023-11-22T07:50:10;0.00;99.90
52203;DHT22;38173;52.850;6.970;2023-11-22T07:52:39;0.00;99.90
52203;DHT22;38173;52.850;6.970;2023-11-22T07:55:09;0.10;99.90
52203;DHT22;38173;52.850;6.970;2023-11-22T07:57:38;0.20;99.90
52203;DHT22;38173;52.850;6.970;2023-11-22T08:00:10;0.30;99.90
52203;DHT22;38173;52.850;6.970;2023-11-22T08:02:37;0.30;99.90
52203;DHT22;38173;52.850;6.970;2023-11-22T08:05:08;0.40;99.90
52203;DHT22;38173;52.850;6.970;2023-11-22T08:07:35;0.40;99.90
52203;DHT22;38173;52.850;6.970;2023-11-22T08:10:06;0.50;99.90
52203;DHT22;38173;52.850;6.970;2023-11-22T08:12:37;0.60;99.90
52203;DHT22;38173;52.850;6.970;2023-11-22T08:15:03;0.60;99.90
52203;DHT22;38173;52.850;6.970;2023-11-22T08:17:29;0.70;99.90
52203;DHT22;38173;52.850;6.970;2023-11-22T08:20:02;0.70;99.90
52203;DHT22;38173;52.850;6.970;2023-11-22T08:22:38;0.80;99.90
52203;DHT22;38173;52.850;6.970;2023-11-22T08:25:08;0.80;99.90
52203;DHT22;38173;52.850;6.970;2023-11-22T08:27:34;0.80;99.90
52203;DHT22;38173;52.850;6.970;2023-11-22T08:30:03;0.90;99.90
52203;DHT22;38173;52.850;6.970;2023-11-22T08:32:33;0.90;99.90
52203;DHT22;38173;52.850;6.970;2023-11-22T08:35:02;1.00;99.90
52203;DHT22;38173;52.850;6.970;2023-11-22T08:37:33;1.00;99.90
52203;DHT22;38173;52.850;6.970;2023-11-22T08:40:07;1.00;99.90
52203;DHT22;38173;52.850;6.970;2023-11-22T08:42:43;1.10;99.90
52203;DHT22;38173;52.850;6.970;2023-11-22T08:45:09;1.10;99.90
52203;DHT22;38173;52.850;6.970;2023-11-22T08:47:44;1.20;99.90
52203;DHT22;38173;52.850;6.970;2023-11-22T08:50:11;1.20;99.90
52203;DHT22;38173;52.850;6.970;2023-11-22T08:52:40;1.30;99.90
52203;DHT22;38173;52.850;6.970;2023-11-22T08:55:07;1.30;99.90
52203;DHT22;38173;52.850;6.970;2023-11-22T08:57:37;1.30;99.90
52203;DHT22;38173;52.850;6.970;2023-11-22T09:00:07;1.30;99.90
52203;DHT22;38173;52.850;6.970;2023-11-22T09:02:35;1.40;99.90
52203;DHT22;38173;52.850;6.970;2023-11-22T09:05:05;1.40;99.90
52203;DHT22;38173;52.850;6.970;2023-11-22T09:07:34;1.50;99.90
52203;DHT22;38173;52.850;6.970;2023-11-22T09:10:09;1.50;99.90
52203;DHT22;38173;52.850;6.970;2023-11-22T09:12:40;1.50;99.90
52203;DHT22;38173;52.850;6.970;2023-11-22T09:15:11;1.60;99.90
52203;DHT22;38173;52.850;6.970;2023-11-22T09:17:39;1.60;99.90
52203;DHT22;38173;52.850;6.970;2023-11-22T09:20:18;1.70;99.90
52203;DHT22;38173;52.850;6.970;2023-11-22T09:22:49;1.70;99.90
52203;DHT22;38173;52.850;6.970;2023-11-22T09:25:20;1.80;99.90
52203;DHT22;38173;52.850;6.970;2023-11-22T09:27:57;1.80;99.90
52203;DHT22;38173;52.850;6.970;2023-11-22T09:30:31;1.90;99.90
52203;DHT22;38173;52.850;6.970;2023-11-22T09:35:37;2.00;99.90
52203;DHT22;38173;52.850;6.970;2023-11-22T09:38:07;2.00;99.90
52203;DHT22;38173;52.850;6.970;2023-11-22T09:40:46;2.10;99.90
52203;DHT22;38173;52.850;6.970;2023-11-22T09:43:18;2.10;99.90
52203;DHT22;38173;52.850;6.970;2023-11-22T09:45:46;2.20;99.90
52203;DHT22;38173;52.850;6.970;2023-11-22T09:48:16;2.20;99.90
52203;DHT22;38173;52.850;6.970;2023-11-22T09:51:08;2.20;99.90
52203;DHT22;38173;52.850;6.970;2023-11-22T09:53:47;2.30;99.90
52203;DHT22;38173;52.850;6.970;2023-11-22T09:56:15;2.30;99.90
52203;DHT22;38173;52.850;6.970;2023-11-22T09:58:41;2.40;99.90
52203;DHT22;38173;52.850;6.970;2023-11-22T10:01:14;2.40;99.90
52203;DHT22;38173;52.850;6.970;2023-11-22T10:03:41;2.50;99.90
52203;DHT22;38173;52.850;6.970;2023-11-22T10:06:07;2.50;99.90
52203;DHT22;38173;52.850;6.970;2023-11-22T10:08:33;2.60;99.90
52203;DHT22;38173;52.850;6.970;2023-11-22T10:11:03;2.60;99.90
52203;DHT22;38173;52.850;6.970;2023-11-22T10:13:29;2.60;99.90
52203;DHT22;38173;52.850;6.970;2023-11-22T10:15:55;2.70;99.90
52203;DHT22;38173;52.850;6.970;2023-11-22T10:18:21;2.70;99.90
52203;DHT22;38173;52.850;6.970;2023-11-22T10:20:48;2.70;99.90
52203;DHT22;38173;52.850;6.970;2023-11-22T10:23:21;2.70;99.90
52203;DHT22;38173;52.850;6.970;2023-11-22T10:25:54;2.80;99.90
52203;DHT22;38173;52.850;6.970;2023-11-22T10:28:22;2.80;99.90
52203;DHT22;38173;52.850;6.970;2023-11-22T10:30:53;2.90;99.90
52203;DHT22;38173;52.850;6.970;2023-11-22T10:33:19;2.90;99.90
52203;DHT22;38173;52.850;6.970;2023-11-22T10:35:51;2.90;99.90
52203;DHT22;38173;52.850;6.970;2023-11-22T10:38:19;3.00;99.90
52203;DHT22;38173;52.850;6.970;2023-11-22T10:40:46;3.10;99.90
52203;DHT22;38173;52.850;6.970;2023-11-22T10:43:16;3.10;99.90
52203;DHT22;38173;52.850;6.970;2023-11-22T10:45:44;3.20;99.90
52203;DHT22;38173;52.850;6.970;2023-11-22T10:48:19;3.30;99.90
52203;DHT22;38173;52.850;6.970;2023-11-22T10:50:47;3.40;99.90
52203;DHT22;38173;52.850;6.970;2023-11-22T10:53:18;3.40;99.90
52203;DHT22;38173;52.850;6.970;2023-11-22T10:55:48;3.50;99.90
52203;DHT22;38173;52.850;6.970;2023-11-22T10:58:17;3.50;99.90
52203;DHT22;38173;52.850;6.970;2023-11-22T11:00:50;3.60;99.90
52203;DHT22;38173;52.850;6.970;2023-11-22T11:03:20;3.60;99.90
52203;DHT22;38173;52.850;6.970;2023-11-22T11:05:57;3.60;99.90
52203;DHT22;38173;52.850;6.970;2023-11-22T11:08:26;3.60;99.90
52203;DHT22;38173;52.850;6.970;2023-11-22T11:10:56;3.60;99.90
52203;DHT22;38173;52.850;6.970;2023-11-22T11:13:23;3.50;99.90
52203;DHT22;38173;52.850;6.970;2023-11-22T11:15:51;3.40;99.90
52203;DHT22;38173;52.850;6.970;2023-11-22T11:18:18;3.30;99.90
52203;DHT22;38173;52.850;6.970;2023-11-22T11:23:25;3.30;99.90
52203;DHT22;38173;52.850;6.970;2023-11-22T11:26:08;3.40;99.90
52203;DHT22;38173;52.850;6.970;2023-11-22T11:28:47;3.60;99.90
52203;DHT22;38173;52.850;6.970;2023-11-22T11:31:14;3.60;99.90
52203;DHT22;38173;52.850;6.970;2023-11-22T11:36:28;3.70;99.90
52203;DHT22;38173;52.850;6.970;2023-11-22T11:38:56;3.80;99.90
52203;DHT22;38173;52.850;6.970;2023-11-22T11:41:29;3.90;99.90
52203;DHT22;38173;52.850;6.970;2023-11-22T11:44:01;4.00;99.90
52203;DHT22;38173;52.850;6.970;2023-11-22T11:46:29;4.00;99.90
52203;DHT22;38173;52.850;6.970;2023-11-22T11:48:55;4.10;99.90
52203;DHT22;38173;52.850;6.970;2023-11-22T11:51:23;4.10;99.90
52203;DHT22;38173;52.850;6.970;2023-11-22T11:53:49;4.20;99.90
52203;DHT22;38173;52.850;6.970;2023-11-22T11:56:15;4.20;99.90
52203;DHT22;38173;52.850;6.970;2023-11-22T11:58:42;4.30;99.90
52203;DHT22;38173;52.850;6.970;2023-11-22T12:01:09;4.30;99.90
52203;DHT22;38173;52.850;6.970;2023-11-22T12:03:40;4.30;99.90
52203;DHT22;38173;52.850;6.970;2023-11-22T12:06:06;4.40;99.90
52203;DHT22;38173;52.850;6.970;2023-11-22T12:08:33;4.50;99.90
52203;DHT22;38173;52.850;6.970;2023-11-22T12:11:14;4.50;99.90
52203;DHT22;38173;52.850;6.970;2023-11-22T12:13:44;4.60;99.90
52203;DHT22;38173;52.850;6.970;2023-11-22T12:16:18;4.70;99.90
52203;DHT22;38173;52.850;6.970;2023-11-22T12:18:45;4.90;99.90
52203;DHT22;38173;52.850;6.970;2023-11-22T12:21:13;4.90;99.90
52203;DHT22;38173;52.850;6.970;2023-11-22T12:23:40;5.00;99.90
52203;DHT22;38173;52.850;6.970;2023-11-22T12:26:12;5.00;99.90
52203;DHT22;38173;52.850;6.970;2023-11-22T12:28:40;5.00;99.90
52203;DHT22;38173;52.850;6.970;2023-11-22T12:31:10;5.00;99.90
52203;DHT22;38173;52.850;6.970;2023-11-22T12:33:37;5.00;99.90
52203;DHT22;38173;52.850;6.970;2023-11-22T12:36:11;5.00;99.90
52203;DHT22;38173;52.850;6.970;2023-11-22T12:38:42;5.00;99.90
52203;DHT22;38173;52.850;6.970;2023-11-22T12:41:11;4.90;99.90
52203;DHT22;38173;52.850;6.970;2023-11-22T12:43:40;4.90;99.90
52203;DHT22;38173;52.850;6.970;2023-11-22T12:46:11;4.80;99.90
52203;DHT22;38173;52.850;6.970;2023-11-22T12:48:39;4.80;99.90
52203;DHT22;38173;52.850;6.970;2023-11-22T12:51:17;4.80;99.90
52203;DHT22;38173;52.850;6.970;2023-11-22T12:53:49;4.80;99.90
52203;DHT22;38173;52.850;6.970;2023-11-22T12:56:27;4.70;99.90
52203;DHT22;38173;52.850;6.970;2023-11-22T12:58:56;4.70;99.90
52203;DHT22;38173;52.850;6.970;2023-11-22T13:01:28;4.60;99.90
52203;DHT22;38173;52.850;6.970;2023-11-22T13:03:56;4.60;99.90
52203;DHT22;38173;52.850;6.970;2023-11-22T13:06:25;4.60;99.90
52203;DHT22;38173;52.850;6.970;2023-11-22T13:09:15;4.50;99.90
52203;DHT22;38173;52.850;6.970;2023-11-22T13:12:05;4.50;99.90
52203;DHT22;38173;52.850;6.970;2023-11-22T13:14:34;4.50;99.90
52203;DHT22;38173;52.850;6.970;2023-11-22T13:17:03;4.40;99.90
52203;DHT22;38173;52.850;6.970;2023-11-22T13:19:30;4.40;99.90
52203;DHT22;38173;52.850;6.970;2023-11-22T13:21:58;4.40;99.90
52203;DHT22;38173;52.850;6.970;2023-11-22T13:24:24;4.40;99.90
52203;DHT22;38173;52.850;6.970;2023-11-22T13:26:50;4.30;99.90
52203;DHT22;38173;52.850;6.970;2023-11-22T13:29:16;4.30;99.90
52203;DHT22;38173;52.850;6.970;2023-11-22T13:31:45;4.30;99.90
52203;DHT22;38173;52.850;6.970;2023-11-22T13:34:11;4.30;99.90
52203;DHT22;38173;52.850;6.970;2023-11-22T13:36:36;4.30;99.90
52203;DHT22;38173;52.850;6.970;2023-11-22T13:39:02;4.30;99.90
52203;DHT22;38173;52.850;6.970;2023-11-22T13:41:29;4.30;99.90
52203;DHT22;38173;52.850;6.970;2023-11-22T13:43:57;4.30;99.90
52203;DHT22;38173;52.850;6.970;2023-11-22T13:46:27;4.30;99.90
52203;DHT22;38173;52.850;6.970;2023-11-22T13:48:52;4.30;99.90
52203;DHT22;38173;52.850;6.970;2023-11-22T13:51:18;4.30;99.90
52203;DHT22;38173;52.850;6.970;2023-11-22T13:53:50;4.30;99.90
52203;DHT22;38173;52.850;6.970;2023-11-22T13:56:22;4.30;99.90
52203;DHT22;38173;52.850;6.970;2023-11-22T13:58:49;4.30;99.90
52203;DHT22;38173;52.850;6.970;2023-11-22T14:01:14;4.30;99.90
52203;DHT22;38173;52.850;6.970;2023-11-22T14:03:42;4.20;99.90
52203;DHT22;38173;52.850;6.970;2023-11-22T14:06:08;4.30;99.90
52203;DHT22;38173;52.850;6.970;2023-11-22T14:08:35;4.30;99.90
52203;DHT22;38173;52.850;6.970;2023-11-22T14:11:01;4.30;99.90
52203;DHT22;38173;52.850;6.970;2023-11-22T14:13:27;4.30;99.90
52203;DHT22;38173;52.850;6.970;2023-11-22T14:15:55;4.30;99.90
52203;DHT22;38173;52.850;6.970;2023-11-22T14:18:21;4.30;99.90
52203;DHT22;38173;52.850;6.970;2023-11-22T14:20:46;4.20;99.90
52203;DHT22;38173;52.850;6.970;2023-11-22T14:23:15;4.30;99.90
52203;DHT22;38173;52.850;6.970;2023-11-22T14:25:42;4.20;99.90
52203;DHT22;38173;52.850;6.970;2023-11-22T14:28:09;4.20;99.90
52203;DHT22;38173;52.850;6.970;2023-11-22T14:30:35;4.20;99.90
52203;DHT22;38173;52.850;6.970;2023-11-22T14:33:09;4.20;99.90
52203;DHT22;38173;52.850;6.970;2023-11-22T14:35:38;4.20;99.90
52203;DHT22;38173;52.850;6.970;2023-11-22T14:38:09;4.20;99.90
52203;DHT22;38173;52.850;6.970;2023-11-22T14:40:38;4.20;99.90
52203;DHT22;38173;52.850;6.970;2023-11-22T14:43:07;4.20;99.90
52203;DHT22;38173;52.850;6.970;2023-11-22T14:45:33;4.20;99.90
52203;DHT22;38173;52.850;6.970;2023-11-22T14:47:59;4.30;99.90
52203;DHT22;38173;52.850;6.970;2023-11-22T14:50:29;4.20;99.90
52203;DHT22;38173;52.850;6.970;2023-11-22T14:52:56;4.20;99.90
52203;DHT22;38173;52.850;6.970;2023-11-22T14:55:22;4.20;99.90
52203;DHT22;38173;52.850;6.970;2023-11-22T14:57:53;4.20;99.90
52203;DHT22;38173;52.850;6.970;2023-11-22T15:00:24;4.20;99.90
52203;DHT22;38173;52.850;6.970;2023-11-22T15:02:50;4.20;99.90
52203;DHT22;38173;52.850;6.970;2023-11-22T15:05:19;4.10;99.90
52203;DHT22;38173;52.850;6.970;2023-11-22T15:07:51;4.10;99.90
52203;DHT22;38173;52.850;6.970;2023-11-22T15:10:20;4.10;99.90
52203;DHT22;38173;52.850;6.970;2023-11-22T15:12:47;4.10;99.90
52203;DHT22;38173;52.850;6.970;2023-11-22T15:15:16;4.10;99.90
52203;DHT22;38173;52.850;6.970;2023-11-22T15:17:44;4.10;99.90
52203;DHT22;38173;52.850;6.970;2023-11-22T15:20:13;4.00;99.90
52203;DHT22;38173;52.850;6.970;2023-11-22T15:22:41;4.00;99.90
52203;DHT22;38173;52.850;6.970;2023-11-22T15:25:14;4.00;99.90
52203;DHT22;38173;52.850;6.970;2023-11-22T15:27:41;4.00;99.90
52203;DHT22;38173;52.850;6.970;2023-11-22T15:30:10;4.00;99.90
52203;DHT22;38173;52.850;6.970;2023-11-22T15:32:37;4.00;99.90
52203;DHT22;38173;52.850;6.970;2023-11-22T15:35:04;3.90;99.90
52203;DHT22;38173;52.850;6.970;2023-11-22T15:37:30;4.00;99.90
52203;DHT22;38173;52.850;6.970;2023-11-22T15:39:56;3.90;99.90
52203;DHT22;38173;52.850;6.970;2023-11-22T15:42:22;4.00;99.90
52203;DHT22;38173;52.850;6.970;2023-11-22T15:44:48;4.00;99.90
52203;DHT22;38173;52.850;6.970;2023-11-22T15:47:16;4.00;99.90
52203;DHT22;38173;52.850;6.970;2023-11-22T15:49:48;4.00;99.90
52203;DHT22;38173;52.850;6.970;2023-11-22T15:52:13;4.00;99.90
52203;DHT22;38173;52.850;6.970;2023-11-22T15:54:39;4.00;99.90
52203;DHT22;38173;52.850;6.970;2023-11-22T15:57:05;4.00;99.90
52203;DHT22;38173;52.850;6.970;2023-11-22T15:59:31;4.00;99.90
52203;DHT22;38173;52.850;6.970;2023-11-22T16:01:57;4.10;99.90
52203;DHT22;38173;52.850;6.970;2023-11-22T16:04:29;4.00;99.90
52203;DHT22;38173;52.850;6.970;2023-11-22T16:06:56;4.00;99.90
52203;DHT22;38173;52.850;6.970;2023-11-22T16:09:28;4.10;99.90
52203;DHT22;38173;52.850;6.970;2023-11-22T16:11:54;4.10;99.90
52203;DHT22;38173;52.850;6.970;2023-11-22T16:14:30;4.10;99.90